Time;durP1;ratioP1;P1;durP2;ratioP2;P2;SDS_P1;SDS_P2;PMS_P1;PMS_P2;Temp;Humidity;BMP_temperature;BMP_pressure;BME280_temperature;BME280_humidity;BME280_pressure;Samples;Min_cycle;Max_cycle;Signal;HPM_P1;HPM_P2
2021/11/17 02:26:26;;;;;;;92.97;26.60;;;4.90;99.90;;;;;;5113562;28;20574;-65
2021/11/17 02:29:12;;;;;;;99.32;27.25;;;4.90;99.90;;;;;;5095096;28;20483;-66
2021/11/17 02:32:08;;;;;;;90.07;24.90;;;5.00;99.90;;;;;;5103194;28;20042;-65
2021/11/17 02:34:42;;;;;;;110.93;27.52;;;5.00;99.90;;;;;;5098857;28;20049;-66
2021/11/17 02:37:23;;;;;;;93.25;27.45;;;5.00;99.90;;;;;;5107465;28;20047;-65
2021/11/17 02:40:08;;;;;;;95.57;28.08;;;5.00;99.90;;;;;;5114058;28;20058;-66
2021/11/17 02:42:55;;;;;;;99.05;27.88;;;5.00;99.90;;;;;;5113978;28;20076;-66
2021/11/17 02:45:24;;;;;;;113.75;30.35;;;5.00;99.90;;;;;;5100464;28;20031;-65
2021/11/17 02:48:01;;;;;;;97.85;27.70;;;5.00;99.90;;;;;;5094018;28;20070;-66
2021/11/17 02:50:52;;;;;;;95.20;28.65;;;5.00;99.90;;;;;;5093258;28;20411;-66
2021/11/17 02:53:20;;;;;;;87.00;26.00;;;5.00;99.90;;;;;;5093979;28;20030;-66
2021/11/17 02:56:09;;;;;;;105.50;27.23;;;5.00;99.90;;;;;;5093643;28;20024;-66
2021/11/17 02:58:55;;;;;;;99.20;25.63;;;5.00;99.90;;;;;;5093491;28;20027;-66
2021/11/17 03:01:29;;;;;;;84.68;27.05;;;5.00;99.90;;;;;;5092549;28;20067;-65
2021/11/17 03:04:13;;;;;;;86.80;27.10;;;5.00;99.90;;;;;;5113637;28;20023;-66
2021/11/17 03:06:45;;;;;;;82.38;25.75;;;5.00;99.90;;;;;;5095163;28;20072;-65
2021/11/17 03:09:42;;;;;;;88.72;24.35;;;5.00;99.90;;;;;;5111022;28;20026;-66
2021/11/17 03:12:31;;;;;;;78.18;25.13;;;5.00;99.90;;;;;;5095677;28;20028;-66
2021/11/17 03:15:23;;;;;;;75.35;24.88;;;5.00;99.90;;;;;;5073576;28;20051;-66
2021/11/17 03:17:49;;;;;;;78.13;26.63;;;5.00;99.90;;;;;;5092820;28;20078;-65
2021/11/17 03:20:43;;;;;;;72.93;24.50;;;5.00;99.90;;;;;;5093549;28;20028;-66
2021/11/17 03:23:38;;;;;;;;;;;5.00;99.90;;;;;;5093645;28;20036;-65
2021/11/17 03:26:10;;;;;;;69.90;23.98;;;5.00;99.90;;;;;;5078747;28;19911;-66
2021/11/17 03:28:53;;;;;;;72.75;23.05;;;5.00;99.90;;;;;;5092639;28;20107;-66
2021/11/17 03:31:54;;;;;;;64.15;23.85;;;4.90;99.90;;;;;;5093563;28;20023;-66
2021/11/17 03:34:55;;;;;;;68.82;23.83;;;4.90;99.90;;;;;;5084183;28;20110;-66
2021/11/17 03:37:30;;;;;;;73.93;24.60;;;5.00;99.90;;;;;;5076469;28;20534;-66
2021/11/17 03:40:40;;;;;;;68.82;23.65;;;4.90;99.90;;;;;;5095183;28;20501;-66
2021/11/17 03:43:24;;;;;;;74.93;23.25;;;4.90;99.90;;;;;;5054784;28;20021;-66
2021/11/17 03:45:58;;;;;;;76.22;24.85;;;4.90;99.90;;;;;;5059786;28;20039;-65
2021/11/17 03:48:45;;;;;;;69.35;21.80;;;4.90;99.90;;;;;;5088879;28;20111;-65
2021/11/17 03:51:20;;;;;;;65.85;21.33;;;4.90;99.90;;;;;;5099680;28;20028;-66
2021/11/17 03:53:57;;;;;;;59.20;20.50;;;4.90;99.90;;;;;;5097617;28;20087;-66
2021/11/17 03:56:49;;;;;;;66.82;20.60;;;4.90;99.90;;;;;;5098147;28;20016;-65
2021/11/17 03:59:32;;;;;;;59.22;20.48;;;4.90;99.90;;;;;;5095652;28;20503;-66
2021/11/17 04:02:06;;;;;;;71.38;21.23;;;4.90;99.90;;;;;;5098579;28;20028;-65
2021/11/17 04:04:50;;;;;;;67.68;21.95;;;4.90;99.90;;;;;;5097007;28;20089;-66
2021/11/17 04:07:15;;;;;;;80.72;22.85;;;4.90;99.90;;;;;;5097160;28;20047;-66
2021/11/17 04:09:50;;;;;;;74.28;22.33;;;4.90;99.90;;;;;;5116223;28;20479;-66
2021/11/17 04:12:34;;;;;;;74.60;22.42;;;4.90;99.90;;;;;;5117475;28;20046;-66
2021/11/17 04:15:23;;;;;;;70.53;20.95;;;4.90;99.90;;;;;;5100587;28;20035;-65
2021/11/17 04:18:03;;;;;;;78.20;22.52;;;4.90;99.90;;;;;;5116659;28;20028;-66
2021/11/17 04:20:44;;;;;;;75.93;21.45;;;4.90;99.90;;;;;;5115621;28;20020;-65
2021/11/17 04:23:16;;;;;;;63.42;20.20;;;4.90;99.90;;;;;;5104539;28;20092;-66
2021/11/17 04:26:08;;;;;;;73.82;20.35;;;4.90;99.90;;;;;;5116902;28;20572;-66
2021/11/17 04:28:43;;;;;;;70.53;20.02;;;4.90;99.90;;;;;;5110084;28;20081;-66
2021/11/17 04:31:26;;;;;;;59.72;20.45;;;5.00;99.90;;;;;;5095883;28;20021;-66
2021/11/17 04:34:12;;;;;;;66.78;19.80;;;5.00;99.90;;;;;;5100078;28;20076;-66
2021/11/17 04:36:46;;;;;;;67.30;20.45;;;5.00;99.90;;;;;;5116971;28;20106;-66
2021/11/17 04:39:38;;;;;;;68.07;21.70;;;5.00;99.90;;;;;;5116617;28;20032;-65
2021/11/17 04:42:24;;;;;;;79.05;20.20;;;5.00;99.90;;;;;;5116516;28;20023;-65
2021/11/17 04:45:22;;;;;;;83.53;21.38;;;5.10;99.90;;;;;;5111688;28;20030;-65
2021/11/17 04:48:09;;;;;;;66.85;19.70;;;5.10;99.90;;;;;;5116072;28;20092;-66
2021/11/17 04:50:59;;;;;;;66.07;19.63;;;5.00;99.90;;;;;;5111335;28;20386;-66
2021/11/17 04:53:43;;;;;;;74.32;20.42;;;5.10;99.90;;;;;;5095638;28;20500;-65
2021/11/17 04:56:29;;;;;;;72.47;20.25;;;5.10;99.90;;;;;;5112948;28;20107;-66
2021/11/17 04:59:16;;;;;;;57.45;18.33;;;5.10;99.90;;;;;;5116142;28;20027;-65
2021/11/17 05:01:51;;;;;;;60.58;18.83;;;5.10;99.90;;;;;;5115815;28;20437;-66
2021/11/17 05:04:31;;;;;;;68.82;20.38;;;5.10;99.90;;;;;;5116761;28;20020;-66
2021/11/17 05:07:18;;;;;;;84.53;20.65;;;5.10;99.90;;;;;;5099474;28;20016;-66
2021/11/17 05:09:55;;;;;;;67.07;19.70;;;5.10;99.90;;;;;;5095612;28;20027;-66
2021/11/17 05:12:27;;;;;;;80.90;20.95;;;5.20;99.90;;;;;;5077520;28;20024;-66
2021/11/17 05:15:14;;;;;;;63.40;22.20;;;5.20;99.90;;;;;;5094946;28;20055;-66
2021/11/17 05:18:10;;;;;;;69.80;21.75;;;5.20;99.90;;;;;;5113222;28;20510;-66
2021/11/17 05:21:11;;;;;;;92.88;25.10;;;5.20;99.90;;;;;;5115945;28;20471;-66
2021/11/17 05:23:44;;;;;;;77.13;23.33;;;5.30;99.90;;;;;;5052399;28;20064;-66
2021/11/17 05:26:33;;;;;;;94.50;26.15;;;5.30;99.90;;;;;;5071052;28;20063;-66
2021/11/17 05:29:15;;;;;;;97.85;26.05;;;5.30;99.90;;;;;;5087063;28;20044;-66
2021/11/17 05:31:58;;;;;;;98.90;24.08;;;5.30;99.90;;;;;;5105523;28;20119;-66
2021/11/17 05:34:30;;;;;;;98.07;26.40;;;5.30;99.90;;;;;;5115920;28;20501;-66
2021/11/17 05:37:06;;;;;;;89.43;25.60;;;5.30;99.90;;;;;;5109897;28;20051;-65
2021/11/17 05:40:02;;;;;;;91.80;26.25;;;5.30;99.90;;;;;;5086876;28;20032;-66
2021/11/17 05:43:01;;;;;;;93.35;26.27;;;5.40;99.90;;;;;;5095235;28;20062;-66
2021/11/17 05:45:39;;;;;;;109.07;28.50;;;5.40;99.90;;;;;;5107435;28;20031;-66
2021/11/17 05:48:11;;;;;;;100.13;26.23;;;5.40;99.90;;;;;;5094949;28;20027;-66
2021/11/17 05:50:58;;;;;;;107.38;29.15;;;5.40;99.90;;;;;;5094376;28;20024;-66
2021/11/17 05:53:48;;;;;;;104.35;26.70;;;5.40;99.90;;;;;;5095109;28;20544;-66
2021/11/17 05:56:35;;;;;;;104.20;28.48;;;5.40;99.90;;;;;;5094896;28;20482;-64
2021/11/17 05:59:20;;;;;;;111.72;28.73;;;5.40;99.90;;;;;;5114152;28;20027;-66
2021/11/17 06:02:00;;;;;;;110.93;31.30;;;5.40;99.90;;;;;;5112428;28;20398;-66
2021/11/17 06:04:26;;;;;;;124.38;30.60;;;5.40;99.90;;;;;;5106266;28;20068;-66
2021/11/17 06:06:51;;;;;;;114.43;30.77;;;5.40;99.90;;;;;;5094781;28;20107;-66
2021/11/17 06:09:18;;;;;;;122.65;32.78;;;5.40;99.90;;;;;;5098581;28;20394;-65
2021/11/17 06:11:46;;;;;;;117.72;30.73;;;5.50;99.90;;;;;;5114829;28;20120;-66
2021/11/17 06:14:16;;;;;;;122.35;30.15;;;5.50;99.90;;;;;;5114242;28;20101;-66
2021/11/17 06:16:46;;;;;;;121.57;32.03;;;5.50;99.90;;;;;;5114717;28;20016;-66
2021/11/17 06:19:16;;;;;;;109.25;31.88;;;5.50;99.90;;;;;;5111014;28;20490;-66
2021/11/17 06:21:42;;;;;;;128.13;35.58;;;5.50;99.90;;;;;;5114881;28;20081;-66
2021/11/17 06:24:11;;;;;;;124.30;32.00;;;5.50;99.90;;;;;;5109647;28;20028;-65
2021/11/17 06:26:40;;;;;;;112.82;32.20;;;5.50;99.90;;;;;;5094163;28;20498;-66
2021/11/17 06:29:16;;;;;;;124.10;35.33;;;5.50;99.90;;;;;;5093797;28;20142;-66
2021/11/17 06:31:43;;;;;;;100.88;30.70;;;5.50;99.90;;;;;;5094352;28;20097;-66
2021/11/17 06:34:27;;;;;;;120.60;33.38;;;5.40;99.90;;;;;;5094038;28;20028;-66
2021/11/17 06:36:52;;;;;;;108.18;34.15;;;5.50;99.90;;;;;;5096127;28;20035;-65
2021/11/17 06:39:19;;;;;;;106.28;31.27;;;5.50;99.90;;;;;;5095854;28;20036;-66
2021/11/17 06:41:44;;;;;;;115.43;34.55;;;5.40;99.90;;;;;;5093847;28;20103;-66
2021/11/17 06:44:10;;;;;;;119.10;34.80;;;5.50;99.90;;;;;;5102393;28;20047;-65
2021/11/17 06:46:36;;;;;;;118.85;36.40;;;5.40;99.90;;;;;;5114176;28;20031;-66
2021/11/17 06:49:01;;;;;;;119.90;33.38;;;5.50;99.90;;;;;;5110273;28;20032;-66
2021/11/17 06:51:27;;;;;;;122.43;34.22;;;5.40;99.90;;;;;;5093450;28;20099;-65
2021/11/17 06:53:52;;;;;;;117.07;35.15;;;5.40;99.90;;;;;;5094731;28;20024;-65
2021/11/17 06:56:18;;;;;;;119.72;34.83;;;5.40;99.90;;;;;;5095112;28;20028;-66
2021/11/17 06:58:44;;;;;;;117.80;36.58;;;5.40;99.90;;;;;;5075443;28;20392;-66
2021/11/17 07:01:10;;;;;;;124.63;37.05;;;5.40;99.90;;;;;;5093433;28;20110;-66
2021/11/17 07:03:36;;;;;;;119.47;36.05;;;5.40;99.90;;;;;;5093425;28;20111;-65
2021/11/17 07:06:02;;;;;;;113.47;35.25;;;5.40;99.90;;;;;;5095290;28;20028;-65
2021/11/17 07:08:28;;;;;;;126.38;35.33;;;5.40;99.90;;;;;;5093480;28;20074;-66
2021/11/17 07:10:53;;;;;;;134.23;35.63;;;5.40;99.90;;;;;;5104597;28;20434;-66
2021/11/17 07:13:20;;;;;;;125.38;36.72;;;5.40;99.90;;;;;;5113522;28;20058;-65
2021/11/17 07:15:46;;;;;;;117.55;35.63;;;5.40;99.90;;;;;;5106295;28;20027;-66
2021/11/17 07:18:11;;;;;;;135.30;37.60;;;5.50;99.90;;;;;;5093647;28;20058;-66
2021/11/17 07:20:38;;;;;;;137.85;37.33;;;5.40;99.90;;;;;;5093657;28;20031;-65
2021/11/17 07:23:06;;;;;;;129.55;38.67;;;5.50;99.90;;;;;;5113318;28;20031;-66
2021/11/17 07:25:31;;;;;;;128.40;35.45;;;5.40;99.90;;;;;;5113617;28;20031;-66
2021/11/17 07:27:58;;;;;;;129.90;34.13;;;5.40;99.90;;;;;;5113661;28;20027;-66
2021/11/17 07:30:29;;;;;;;116.03;33.78;;;5.40;99.90;;;;;;5112456;28;20027;-65
2021/11/17 07:32:56;;;;;;;107.35;31.83;;;5.40;99.90;;;;;;5110474;28;20055;-65
2021/11/17 07:35:24;;;;;;;114.72;32.17;;;5.40;99.90;;;;;;5113819;28;20030;-66
2021/11/17 07:37:51;;;;;;;104.88;28.65;;;5.40;99.90;;;;;;5106998;28;20038;-66
2021/11/17 07:40:17;;;;;;;109.88;31.98;;;5.40;99.90;;;;;;5135073;22;20086;-69
2021/11/17 07:42:43;;;;;;;110.90;31.63;;;5.40;99.90;;;;;;5113062;28;20085;-68
2021/11/17 07:45:10;;;;;;;112.32;33.92;;;5.40;99.90;;;;;;5111200;28;20432;-69
2021/11/17 07:47:36;;;;;;;127.85;35.10;;;5.40;99.90;;;;;;5092880;28;20064;-69
2021/11/17 07:50:05;;;;;;;118.50;34.35;;;5.50;99.90;;;;;;5094033;28;20115;-69
2021/11/17 07:52:31;;;;;;;117.03;36.30;;;5.50;99.90;;;;;;5092869;28;20487;-69
2021/11/17 07:54:57;;;;;;;145.63;37.63;;;5.50;99.90;;;;;;5097015;28;20035;-68
2021/11/17 07:57:23;;;;;;;144.88;37.30;;;5.50;99.90;;;;;;5093025;28;20020;-69
2021/11/17 07:59:48;;;;;;;142.00;40.58;;;5.50;99.90;;;;;;5096841;28;20518;-69
2021/11/17 08:02:14;;;;;;;129.80;36.40;;;5.50;99.90;;;;;;5110868;28;20046;-69
2021/11/17 08:04:41;;;;;;;140.18;37.35;;;5.50;99.90;;;;;;5109631;28;20509;-69
2021/11/17 08:07:14;;;;;;;143.77;36.75;;;5.60;99.90;;;;;;5112758;28;20031;-69
2021/11/17 08:09:42;;;;;;;142.52;39.38;;;5.60;99.90;;;;;;5108370;28;20035;-68
2021/11/17 08:12:08;;;;;;;160.43;42.50;;;5.60;99.90;;;;;;5092837;28;20031;-69
2021/11/17 08:14:34;;;;;;;169.23;40.63;;;5.60;99.90;;;;;;5092847;28;20031;-69
2021/11/17 08:17:00;;;;;;;155.98;40.15;;;5.60;99.90;;;;;;5105187;28;20023;-69
2021/11/17 08:19:26;;;;;;;171.18;43.63;;;5.60;99.90;;;;;;5113175;28;20023;-69
2021/11/17 08:21:52;;;;;;;170.43;41.85;;;5.70;99.90;;;;;;5104067;28;20494;-68
2021/11/17 08:24:18;;;;;;;154.48;43.25;;;5.70;99.90;;;;;;5093020;28;20020;-69
2021/11/17 08:26:43;;;;;;;164.73;43.00;;;5.70;99.90;;;;;;5096823;28;20096;-69
2021/11/17 08:29:09;;;;;;;164.38;44.60;;;5.70;99.90;;;;;;5116831;28;20020;-69
2021/11/17 08:31:37;;;;;;;175.73;45.58;;;5.80;99.90;;;;;;5098015;28;20023;-69
2021/11/17 08:34:03;;;;;;;184.88;45.65;;;5.80;99.90;;;;;;5117090;28;20028;-69
2021/11/17 08:36:29;;;;;;;185.70;48.10;;;5.80;99.90;;;;;;5112889;28;20103;-69
2021/11/17 08:38:55;;;;;;;188.82;46.83;;;5.90;99.90;;;;;;5109548;28;20024;-69
2021/11/17 08:41:23;;;;;;;199.43;51.63;;;5.90;99.90;;;;;;5095474;28;20400;-68
2021/11/17 08:43:49;;;;;;;203.85;49.03;;;5.90;99.90;;;;;;5096386;28;20031;-69
2021/11/17 08:46:15;;;;;;;216.30;51.25;;;6.00;99.90;;;;;;5115587;28;20073;-69
2021/11/17 08:48:41;;;;;;;209.38;51.60;;;6.00;99.90;;;;;;5116730;28;20024;-69
2021/11/17 08:51:13;;;;;;;209.38;51.60;;;6.10;99.90;;;;;;5116312;28;20023;-69
2021/11/17 08:53:41;;;;;;;233.98;56.35;;;6.10;99.90;;;;;;5116686;28;20015;-68
2021/11/17 08:56:09;;;;;;;257.20;56.60;;;6.20;99.90;;;;;;5115919;28;20051;-68
2021/11/17 08:58:35;;;;;;;221.98;55.42;;;6.20;99.90;;;;;;5116288;28;20027;-69
2021/11/17 09:01:00;;;;;;;243.50;57.22;;;6.20;99.90;;;;;;5115258;28;20544;-69
2021/11/17 09:03:27;;;;;;;254.30;59.28;;;6.20;99.90;;;;;;5096272;28;20063;-69
2021/11/17 09:05:56;;;;;;;228.98;59.47;;;6.30;99.90;;;;;;5095371;28;20024;-69
2021/11/17 09:08:24;;;;;;;257.90;57.95;;;6.30;99.90;;;;;;5113886;28;20108;-69
2021/11/17 09:10:57;;;;;;;259.10;60.90;;;6.40;99.90;;;;;;5115973;28;20533;-69
2021/11/17 09:13:22;;;;;;;276.95;61.90;;;6.40;99.90;;;;;;5102093;28;20039;-68
2021/11/17 09:15:50;;;;;;;294.60;66.03;;;6.50;99.90;;;;;;5113197;28;20031;-69
2021/11/17 09:18:18;;;;;;;291.77;65.72;;;6.60;99.90;;;;;;5115540;28;20027;-69
2021/11/17 09:20:44;;;;;;;305.30;64.15;;;6.60;99.90;;;;;;5112017;28;20027;-69
2021/11/17 09:23:13;;;;;;;304.20;59.47;;;6.70;99.90;;;;;;5116007;28;20023;-69
2021/11/17 09:25:39;;;;;;;295.63;62.67;;;6.70;99.90;;;;;;5111544;28;20089;-69
2021/11/17 09:28:06;;;;;;;255.50;57.60;;;6.70;99.90;;;;;;5116015;28;20102;-69
2021/11/17 09:30:35;;;;;;;228.80;55.30;;;6.80;99.90;;;;;;5099969;28;20483;-69
2021/11/17 09:33:04;;;;;;;223.20;52.72;;;6.90;99.90;;;;;;5094941;28;20447;-69
2021/11/17 09:35:33;;;;;;;236.88;52.85;;;6.90;99.90;;;;;;5095134;28;20024;-69
2021/11/17 09:38:01;;;;;;;229.82;50.00;;;7.00;99.90;;;;;;5094681;28;20020;-68
2021/11/17 09:40:31;;;;;;;192.82;46.92;;;7.10;99.90;;;;;;5111285;28;20039;-68
2021/11/17 09:42:57;;;;;;;194.80;46.20;;;7.10;99.90;;;;;;5115370;28;20035;-68
2021/11/17 09:45:24;;;;;;;149.88;37.45;;;7.20;99.90;;;;;;5113021;28;20015;-68
2021/11/17 09:47:53;;;;;;;146.48;34.83;;;7.30;99.90;;;;;;5114766;28;20094;-67
2021/11/17 09:50:41;;;;;;;120.70;30.77;;;7.40;99.90;;;;;;5105147;28;20028;-67
2021/11/17 09:53:24;;;;;;;122.10;34.03;;;7.50;99.90;;;;;;5095147;28;20467;-67
2021/11/17 09:56:17;;;;;;;117.25;32.97;;;7.60;99.90;;;;;;5105537;28;20394;-67
2021/11/17 09:58:50;;;;;;;118.95;33.05;;;7.70;99.90;;;;;;5114910;28;20032;-67
2021/11/17 10:01:26;;;;;;;128.90;33.60;;;7.80;99.90;;;;;;5111335;28;20036;-67
2021/11/17 10:04:15;;;;;;;126.30;30.98;;;7.80;99.90;;;;;;5115846;28;20024;-68
2021/11/17 10:14:59;;;;;;;106.00;28.17;;;8.00;99.90;;;;;;5105634;28;20116;-68
2021/11/17 10:17:47;;;;;;;101.65;27.77;;;8.10;99.90;;;;;;5094664;28;20028;-67
2021/11/17 10:20:19;;;;;;;104.45;28.63;;;8.10;99.90;;;;;;5094469;28;20028;-67
2021/11/17 10:23:16;;;;;;;117.80;30.23;;;8.20;99.90;;;;;;5103942;28;20024;-68
2021/11/17 10:25:55;;;;;;;119.10;30.38;;;8.20;99.90;;;;;;5094244;28;20032;-68
2021/11/17 10:28:49;;;;;;;120.78;32.70;;;8.30;99.90;;;;;;5094124;28;20391;-67
2021/11/17 10:31:23;;;;;;;116.45;32.60;;;8.30;99.90;;;;;;5086758;28;20032;-69
2021/11/17 10:33:49;;;;;;;131.00;36.33;;;8.40;99.90;;;;;;5106614;28;20032;-67
2021/11/17 10:36:43;;;;;;;130.13;35.83;;;8.50;99.90;;;;;;5113753;28;20433;-68
2021/11/17 10:39:20;;;;;;;118.32;36.20;;;8.50;99.90;;;;;;5091396;28;20111;-68
2021/11/17 10:41:59;;;;;;;106.90;29.95;;;8.60;99.90;;;;;;5114015;28;20045;-67
2021/11/17 10:44:46;;;;;;;92.53;28.23;;;8.70;99.90;;;;;;5114263;28;20020;-67
2021/11/17 10:47:34;;;;;;;90.95;24.90;;;8.70;99.90;;;;;;5114569;28;20016;-68
2021/11/17 10:50:11;;;;;;;80.38;24.33;;;8.70;99.90;;;;;;5113235;28;20054;-67
2021/11/17 10:52:45;;;;;;;93.63;20.58;;;8.70;99.90;;;;;;5113986;28;20036;-67
2021/11/17 10:55:38;;;;;;;68.70;17.63;;;8.80;99.90;;;;;;5107744;28;20111;-67
2021/11/17 10:58:25;;;;;;;44.45;14.15;;;8.90;99.90;;;;;;5087172;28;20051;-68
2021/11/17 11:00:58;;;;;;;41.67;10.60;;;9.00;99.90;;;;;;5102771;28;20031;-67
2021/11/17 11:03:27;;;;;;;44.00;8.43;;;9.00;99.90;;;;;;5114074;28;20088;-68
2021/11/17 11:06:09;;;;;;;29.85;7.78;;;9.00;99.90;;;;;;5109617;28;20019;-68
2021/11/17 11:08:51;;;;;;;44.55;7.03;;;9.00;99.90;;;;;;5099912;28;20038;-68
2021/11/17 11:11:18;;;;;;;46.55;6.72;;;9.00;99.90;;;;;;5093511;28;20024;-68
2021/11/17 11:13:54;;;;;;;16.70;4.47;;;9.00;99.90;;;;;;5100182;28;20363;-68
2021/11/17 11:16:54;;;;;;;40.50;5.60;;;9.10;99.90;;;;;;5093740;28;20100;-68
2021/11/17 11:19:20;;;;;;;27.00;4.60;;;9.20;99.90;;;;;;5049095;28;20042;-67
2021/11/17 11:21:45;;;;;;;49.70;4.50;;;9.20;99.90;;;;;;5081720;28;20103;-68
2021/11/17 11:24:14;;;;;;;34.67;4.72;;;9.10;99.90;;;;;;5081165;28;20028;-67
2021/11/17 11:26:58;;;;;;;36.55;4.32;;;9.10;99.90;;;;;;5081722;28;20031;-67
2021/11/17 11:29:35;;;;;;;37.63;4.18;;;9.20;99.90;;;;;;5082194;28;20028;-68
2021/11/17 11:32:09;;;;;;;27.55;4.18;;;9.30;99.90;;;;;;5083494;28;20037;-68
2021/11/17 11:34:58;;;;;;;29.52;5.35;;;9.30;99.90;;;;;;5080626;28;20036;-67
2021/11/17 11:37:24;;;;;;;31.48;5.50;;;9.40;99.90;;;;;;5082228;28;20433;-67
2021/11/17 11:40:17;;;;;;;22.33;4.20;;;9.40;99.90;;;;;;5080803;28;20054;-68
2021/11/17 11:42:58;;;;;;;22.30;3.88;;;9.50;99.90;;;;;;5080188;28;20586;-68
2021/11/17 11:45:26;;;;;;;36.95;4.63;;;9.40;99.90;;;;;;5081033;28;20028;-68
2021/11/17 11:48:12;;;;;;;32.53;4.20;;;9.40;99.90;;;;;;5082718;28;20078;-68
2021/11/17 11:50:38;;;;;;;31.77;4.68;;;9.40;99.90;;;;;;5089071;28;20031;-68
2021/11/17 11:53:12;;;;;;;29.58;3.35;;;9.40;99.90;;;;;;5090855;28;20483;-68
2021/11/17 11:55:52;;;;;;;25.23;4.30;;;9.40;99.90;;;;;;5091836;28;20032;-68
2021/11/17 11:58:23;;;;;;;30.67;4.60;;;9.40;99.90;;;;;;5092210;28;20085;-71
2021/11/17 12:01:11;;;;;;;21.00;2.70;;;9.40;99.90;;;;;;5074680;28;20073;-72
2021/11/17 12:03:46;;;;;;;44.50;4.35;;;9.40;99.90;;;;;;5083886;28;20050;-72
2021/11/17 12:06:27;;;;;;;32.15;3.05;;;9.50;99.90;;;;;;5095543;28;20032;-72
2021/11/17 12:09:13;;;;;;;35.63;4.72;;;9.60;99.90;;;;;;5095782;28;20027;-68
2021/11/17 12:12:25;;;;;;;46.15;5.03;;;9.60;99.90;;;;;;5095432;28;20016;-68
2021/11/17 12:15:40;;;;;;;41.65;7.65;;;9.50;99.90;;;;;;5075749;28;20495;-68
2021/11/17 12:18:20;;;;;;;41.75;5.03;;;9.40;99.90;;;;;;5083816;28;20040;-68
2021/11/17 12:21:11;;;;;;;28.90;4.25;;;9.30;99.90;;;;;;5095049;28;20028;-68
2021/11/17 12:23:42;;;;;;;28.30;4.35;;;9.30;99.90;;;;;;5091425;28;20036;-68
2021/11/17 12:26:16;;;;;;;42.78;5.70;;;9.20;99.90;;;;;;5095878;28;20027;-68
2021/11/17 12:28:45;;;;;;;48.28;5.10;;;9.30;99.90;;;;;;5095717;28;20063;-68
2021/11/17 12:31:19;;;;;;;56.20;5.68;;;9.50;99.90;;;;;;5094923;28;20035;-68
2021/11/17 12:33:50;;;;;;;46.88;5.30;;;9.60;99.90;;;;;;5095677;28;20149;-68
2021/11/17 12:36:19;;;;;;;43.28;5.40;;;9.80;99.90;;;;;;5086203;28;20032;-68
2021/11/17 12:38:46;;;;;;;33.20;5.22;;;9.90;99.90;;;;;;5094775;28;20031;-68
2021/11/17 12:41:14;;;;;;;33.63;5.43;;;10.10;99.90;;;;;;5095365;28;20479;-70
2021/11/17 12:43:51;;;;;;;38.30;4.75;;;10.40;99.90;;;;;;5094397;28;20111;-67
2021/11/17 12:46:38;;;;;;;31.05;5.55;;;10.40;99.90;;;;;;5093210;28;20039;-68
2021/11/17 12:49:14;;;;;;;36.40;5.18;;;10.20;99.90;;;;;;5093877;28;20073;-67
2021/11/17 12:52:00;;;;;;;37.65;5.55;;;10.00;99.90;;;;;;5092855;28;20089;-68
2021/11/17 12:54:43;;;;;;;41.88;5.47;;;9.90;99.90;;;;;;5094507;28;20047;-67
2021/11/17 12:57:15;;;;;;;48.08;8.27;;;9.80;99.90;;;;;;5091384;28;20032;-67
2021/11/17 12:59:47;;;;;;;48.58;10.70;;;9.80;99.90;;;;;;5087456;28;20031;-67
2021/11/17 13:02:22;;;;;;;36.33;6.38;;;9.70;99.90;;;;;;5095851;28;20031;-68
2021/11/17 13:04:52;;;;;;;35.60;5.72;;;9.70;99.90;;;;;;5095389;28;20024;-68
2021/11/17 13:07:47;;;;;;;40.58;5.68;;;9.80;99.90;;;;;;5095676;28;20470;-67
2021/11/17 13:10:27;;;;;;;;;;;10.10;99.90;;;;;;5096165;28;20487;-68
2021/11/17 13:13:14;;;;;;;32.80;4.03;;;10.40;99.90;;;;;;5094740;28;19904;-68
2021/11/17 13:15:41;;;;;;;36.35;5.32;;;10.60;99.90;;;;;;5095748;28;20028;-68
2021/11/17 13:18:22;;;;;;;29.88;4.82;;;10.60;99.90;;;;;;5095453;28;20020;-68
2021/11/17 13:20:48;;;;;;;28.20;4.95;;;10.60;99.90;;;;;;5095435;28;20489;-67
2021/11/17 13:23:14;;;;;;;22.90;4.18;;;10.60;99.90;;;;;;5095431;28;20032;-67
2021/11/17 13:25:49;;;;;;;39.95;5.22;;;10.50;99.90;;;;;;5077034;28;20437;-68
2021/11/17 13:28:40;;;;;;;39.00;5.78;;;10.60;99.90;;;;;;5095282;28;20031;-68
2021/11/17 13:31:27;;;;;;;33.58;5.88;;;10.70;99.90;;;;;;5095139;28;20082;-68
2021/11/17 13:33:59;;;;;;;35.95;4.85;;;10.70;99.90;;;;;;5095234;28;20028;-68
2021/11/17 13:36:39;;;;;;;40.10;7.07;;;10.50;99.90;;;;;;5095263;28;20052;-68
2021/11/17 13:39:06;;;;;;;42.35;6.05;;;10.40;99.90;;;;;;5094531;28;20031;-68
2021/11/17 13:41:33;;;;;;;36.88;6.90;;;10.30;99.90;;;;;;5093941;28;20036;-68
2021/11/17 13:44:00;;;;;;;44.80;6.20;;;10.50;99.90;;;;;;5095066;28;20020;-68
2021/11/17 13:46:26;;;;;;;38.35;4.90;;;10.70;99.90;;;;;;5094867;28;20046;-68
2021/11/17 13:48:52;;;;;;;30.05;5.20;;;10.70;99.90;;;;;;5095212;28;20024;-68
2021/11/17 13:51:21;;;;;;;42.47;5.05;;;10.50;99.90;;;;;;5074867;28;20499;-67
2021/11/17 13:53:47;;;;;;;43.88;5.38;;;10.30;99.90;;;;;;5094828;28;20020;-68
2021/11/17 13:56:30;;;;;;;28.77;4.22;;;10.10;99.90;;;;;;5094223;28;20096;-68
2021/11/17 13:58:55;;;;;;;38.00;5.47;;;10.10;99.90;;;;;;5094837;28;20380;-68
2021/11/17 14:01:23;;;;;;;37.33;6.78;;;10.00;99.90;;;;;;5093976;28;20081;-67
2021/11/17 14:03:49;;;;;;;43.42;5.38;;;9.70;99.90;;;;;;5094628;28;20016;-68
2021/11/17 14:06:17;;;;;;;28.23;3.53;;;9.40;99.90;;;;;;5094903;28;20462;-68
2021/11/17 14:08:43;;;;;;;31.88;4.68;;;9.10;99.90;;;;;;5094541;28;20020;-68
2021/11/17 14:11:11;;;;;;;21.17;3.90;;;8.90;99.90;;;;;;5092739;28;20024;-67
2021/11/17 14:13:37;;;;;;;28.27;4.90;;;8.80;99.90;;;;;;5094704;28;20032;-68
2021/11/17 14:16:03;;;;;;;32.55;5.85;;;8.70;99.90;;;;;;5094190;28;20020;-67
2021/11/17 14:18:29;;;;;;;18.58;4.72;;;8.60;99.90;;;;;;5094093;28;20093;-68
2021/11/17 14:20:56;;;;;;;35.97;6.38;;;8.50;99.90;;;;;;5093991;28;20415;-68
2021/11/17 14:23:22;;;;;;;28.52;4.45;;;8.40;99.90;;;;;;5093498;28;20028;-68
2021/11/17 14:25:48;;;;;;;33.45;4.03;;;8.30;99.90;;;;;;5094725;28;20020;-68
2021/11/17 14:28:17;;;;;;;30.27;4.63;;;8.30;99.90;;;;;;5094173;28;20031;-68
2021/11/17 14:31:07;;;;;;;29.85;5.32;;;8.30;99.90;;;;;;5093566;28;20052;-68
2021/11/17 14:33:33;;;;;;;27.90;4.72;;;8.30;99.90;;;;;;5094134;28;20115;-68
2021/11/17 14:36:02;;;;;;;35.95;4.00;;;8.40;99.90;;;;;;5094339;28;20031;-68
2021/11/17 14:38:30;;;;;;;28.33;4.80;;;8.30;99.90;;;;;;5093935;28;20031;-68
2021/11/17 14:40:55;;;;;;;27.40;3.90;;;8.20;99.90;;;;;;5093513;28;20399;-68
2021/11/17 14:43:23;;;;;;;24.90;3.90;;;8.10;99.90;;;;;;5093325;28;20016;-68
2021/11/17 14:45:49;;;;;;;20.40;3.35;;;8.10;99.90;;;;;;5093854;28;20023;-68
2021/11/17 14:48:16;;;;;;;30.42;3.53;;;8.00;99.90;;;;;;5093943;28;20035;-68
2021/11/17 14:50:43;;;;;;;36.78;3.50;;;8.00;99.90;;;;;;5093772;28;20108;-68
2021/11/17 14:53:11;;;;;;;22.55;2.97;;;8.00;99.90;;;;;;5093721;28;20478;-68
2021/11/17 14:55:38;;;;;;;22.48;3.20;;;8.10;99.90;;;;;;5093183;28;20073;-68
2021/11/17 14:58:04;;;;;;;27.73;4.05;;;8.20;99.90;;;;;;5093687;28;20051;-68
2021/11/17 15:00:44;;;;;;;27.65;4.38;;;8.20;99.90;;;;;;5075363;28;20119;-68
2021/11/17 15:03:10;;;;;;;23.33;3.80;;;8.10;99.90;;;;;;5093228;28;20028;-68
2021/11/17 15:05:36;;;;;;;14.63;2.67;;;8.10;99.90;;;;;;5075467;28;20084;-68
2021/11/17 15:08:03;;;;;;;26.45;3.58;;;8.00;99.90;;;;;;5092882;28;20016;-67
2021/11/17 15:10:29;;;;;;;19.30;3.30;;;8.00;99.90;;;;;;5093436;28;20025;-68
2021/11/17 15:12:54;;;;;;;28.42;3.97;;;7.90;99.90;;;;;;5093189;28;20028;-67
2021/11/17 15:15:23;;;;;;;33.22;5.05;;;8.00;99.90;;;;;;5093141;28;20372;-68
2021/11/17 15:17:50;;;;;;;30.45;3.25;;;8.00;99.90;;;;;;5092986;28;20509;-68
2021/11/17 15:20:17;;;;;;;23.17;4.03;;;8.00;99.90;;;;;;5092759;28;20039;-68
2021/11/17 15:22:44;;;;;;;36.67;3.47;;;7.90;99.90;;;;;;5093019;28;20133;-68
2021/11/17 15:25:16;;;;;;;17.40;3.28;;;7.90;99.90;;;;;;5093209;28;20020;-68
2021/11/17 15:27:49;;;;;;;28.33;4.05;;;7.80;99.90;;;;;;5093696;28;20058;-68
2021/11/17 15:30:20;;;;;;;19.77;4.00;;;7.80;99.90;;;;;;5093184;28;20028;-67
2021/11/17 15:32:46;;;;;;;26.40;3.80;;;7.80;99.90;;;;;;5093304;28;20487;-68
2021/11/17 15:35:14;;;;;;;26.30;4.60;;;7.80;99.90;;;;;;5095528;28;20020;-67
2021/11/17 15:37:41;;;;;;;22.63;3.35;;;7.90;99.90;;;;;;5096332;28;20035;-67
2021/11/17 15:40:12;;;;;;;16.88;2.67;;;7.90;99.90;;;;;;5097482;28;20501;-68
2021/11/17 15:42:38;;;;;;;18.65;3.42;;;7.80;99.90;;;;;;5069214;28;20111;-68
2021/11/17 15:45:04;;;;;;;15.57;3.20;;;7.60;99.90;;;;;;5077941;28;20388;-68
2021/11/17 15:47:29;;;;;;;17.08;2.80;;;7.50;99.90;;;;;;5078560;28;20024;-68